createdAt,value
2024-01-24T00:00:04.828Z,19.25
2024-01-24T00:01:03.187Z,19.23
2024-01-24T00:02:03.457Z,19.22
2024-01-24T00:03:03.562Z,19.21
2024-01-24T00:04:02.920Z,19.17
2024-01-24T00:05:02.879Z,19.27
2024-01-24T00:06:02.846Z,19.35
2024-01-24T00:07:03.009Z,19.40
2024-01-24T00:08:02.746Z,19.38
2024-01-24T00:09:02.822Z,19.43
2024-01-24T00:10:02.832Z,19.39
2024-01-24T00:11:02.650Z,19.37
2024-01-24T00:12:02.588Z,19.33
2024-01-24T00:13:02.343Z,19.34
2024-01-24T00:14:03.199Z,19.29
2024-01-24T00:15:03.316Z,19.36
2024-01-24T00:16:02.415Z,19.43
2024-01-24T00:17:03.577Z,19.46
2024-01-24T00:18:03.330Z,19.48
2024-01-24T00:19:03.276Z,19.45
2024-01-24T00:20:03.506Z,19.45
2024-01-24T00:21:02.490Z,19.39
2024-01-24T00:22:03.376Z,19.37
2024-01-24T00:23:02.464Z,19.35
2024-01-24T00:24:02.388Z,19.32
2024-01-24T00:25:03.628Z,19.24
2024-01-24T00:26:02.863Z,19.24
2024-01-24T00:27:03.306Z,19.35
2024-01-24T00:28:03.140Z,19.27
2024-01-24T00:29:02.828Z,19.27
2024-01-24T00:30:03.039Z,19.33
2024-01-24T00:31:03.041Z,19.30
2024-01-24T00:32:03.329Z,19.40
2024-01-24T00:33:03.383Z,19.36
2024-01-24T00:34:03.270Z,19.34
2024-01-24T00:35:03.191Z,19.36
2024-01-24T00:36:03.074Z,19.43
2024-01-24T00:37:02.926Z,19.45
2024-01-24T00:38:02.735Z,19.45
2024-01-24T00:39:02.620Z,19.48
2024-01-24T00:40:02.546Z,19.52
2024-01-24T00:41:02.540Z,19.52
2024-01-24T00:42:02.388Z,19.48
2024-01-24T00:43:03.113Z,19.48
2024-01-24T00:44:02.960Z,19.62
2024-01-24T00:45:03.054Z,19.73
2024-01-24T00:46:02.734Z,19.79
2024-01-24T00:47:02.768Z,19.86
2024-01-24T00:48:02.573Z,19.88
2024-01-24T00:49:02.403Z,19.88
2024-01-24T00:50:03.415Z,19.88
2024-01-24T00:51:02.636Z,19.89
2024-01-24T00:52:02.675Z,19.92
2024-01-24T00:53:02.490Z,19.92
2024-01-24T00:54:02.320Z,19.91
2024-01-24T00:55:03.384Z,19.95
2024-01-24T00:56:03.347Z,19.97
2024-01-24T00:57:03.230Z,19.78
2024-01-24T00:58:03.150Z,19.77
2024-01-24T00:59:03.087Z,19.77
2024-01-24T01:00:04.584Z,19.79
2024-01-24T01:01:03.462Z,19.79
2024-01-24T01:02:03.569Z,19.81
2024-01-24T01:03:02.576Z,19.89
2024-01-24T01:04:02.471Z,19.95
2024-01-24T01:05:03.464Z,19.95
2024-01-24T01:06:03.440Z,19.93
2024-01-24T01:07:03.384Z,19.96
2024-01-24T01:08:02.422Z,19.96
2024-01-24T01:09:03.419Z,20.00
2024-01-24T01:10:02.608Z,20.05
2024-01-24T01:11:02.384Z,20.07
2024-01-24T01:12:03.256Z,20.06
2024-01-24T01:13:03.255Z,20.01
2024-01-24T01:14:03.064Z,20.04
2024-01-24T01:15:03.189Z,20.09
2024-01-24T01:16:03.659Z,20.02
2024-01-24T01:17:03.424Z,20.09
2024-01-24T01:18:02.581Z,20.15
2024-01-24T01:19:02.561Z,20.17
2024-01-24T01:20:03.544Z,20.18
2024-01-24T01:21:02.616Z,20.14
2024-01-24T01:22:02.557Z,20.19
2024-01-24T01:23:02.488Z,20.17
2024-01-24T01:24:03.368Z,20.21
2024-01-24T01:25:02.665Z,20.29
2024-01-24T01:26:02.638Z,20.26
2024-01-24T01:27:02.515Z,20.15
2024-01-24T01:28:03.587Z,20.13
2024-01-24T01:29:02.635Z,20.19
2024-01-24T01:30:02.851Z,20.21
2024-01-24T01:31:02.761Z,20.14
2024-01-24T01:32:02.833Z,20.15
2024-01-24T01:33:02.972Z,20.19
2024-01-24T01:34:02.873Z,20.16
2024-01-24T01:35:02.696Z,20.13
2024-01-24T01:37:03.170Z,20.23
2024-01-24T01:38:02.857Z,20.29
2024-01-24T01:39:02.858Z,20.29
2024-01-24T01:40:03.058Z,20.34
2024-01-24T01:41:02.788Z,20.30
2024-01-24T01:42:02.687Z,20.27
2024-01-24T01:43:02.805Z,20.38
2024-01-24T01:44:02.662Z,20.45
2024-01-24T01:45:03.033Z,20.50
2024-01-24T01:46:03.227Z,20.48
2024-01-24T01:47:03.546Z,20.50
2024-01-24T01:48:02.920Z,20.51
2024-01-24T01:49:02.860Z,20.51
2024-01-24T01:50:02.812Z,20.52
2024-01-24T01:51:02.764Z,20.58
2024-01-24T01:52:02.639Z,20.57
2024-01-24T01:53:02.499Z,20.55
2024-01-24T01:54:02.457Z,20.43
2024-01-24T01:55:02.430Z,20.45
2024-01-24T01:56:02.460Z,20.50
2024-01-24T01:57:03.251Z,20.5
2024-01-24T01:58:03.079Z,20.42
2024-01-24T01:59:02.834Z,20.38
2024-01-24T02:00:04.052Z,20.39
2024-01-24T02:01:03.400Z,20.41
2024-01-24T02:02:03.457Z,20.39
2024-01-24T02:03:02.518Z,20.38
2024-01-24T02:04:02.348Z,20.42
2024-01-24T02:05:03.411Z,20.47
2024-01-24T02:06:02.562Z,20.53
2024-01-24T02:07:02.442Z,20.46
2024-01-24T02:08:03.280Z,20.47
2024-01-24T02:09:03.272Z,20.52
2024-01-24T02:10:03.108Z,20.54
2024-01-24T02:11:03.285Z,20.54
2024-01-24T02:12:03.614Z,20.54
2024-01-24T02:13:03.542Z,20.5
2024-01-24T02:14:03.144Z,20.51
2024-01-24T02:15:03.246Z,20.46
2024-01-24T02:16:02.424Z,20.52
2024-01-24T02:17:03.425Z,20.44
2024-01-24T02:18:02.855Z,20.36
2024-01-24T02:19:02.879Z,20.41
2024-01-24T02:20:02.765Z,20.44
2024-01-24T02:21:02.566Z,20.39
2024-01-24T02:22:02.446Z,20.42
2024-01-24T02:23:03.313Z,20.51
2024-01-24T02:24:03.299Z,20.59
2024-01-24T02:25:03.221Z,20.60
2024-01-24T02:26:03.142Z,20.64
2024-01-24T02:27:03.016Z,20.68
2024-01-24T02:28:03.025Z,20.55
2024-01-24T02:29:02.757Z,20.60
2024-01-24T02:30:02.908Z,20.62
2024-01-24T02:31:02.931Z,20.54
2024-01-24T02:32:03.280Z,20.54
2024-01-24T02:33:02.494Z,20.60
2024-01-24T02:34:02.657Z,20.62
2024-01-24T02:35:02.537Z,20.56
2024-01-24T02:36:02.444Z,20.60
2024-01-24T02:37:03.415Z,20.51
2024-01-24T02:38:03.343Z,20.43
2024-01-24T02:39:03.268Z,20.43
2024-01-24T02:40:03.434Z,20.52
2024-01-24T02:41:02.294Z,20.53
2024-01-24T02:42:03.143Z,20.62
2024-01-24T02:43:03.137Z,20.68
2024-01-24T02:44:03.122Z,20.73
2024-01-24T02:45:03.244Z,20.70
2024-01-24T02:46:02.745Z,20.57
2024-01-24T02:47:02.827Z,20.64
2024-01-24T02:48:02.519Z,20.67
2024-01-24T02:49:02.633Z,20.60
2024-01-24T02:50:03.334Z,20.71
2024-01-24T02:51:03.234Z,20.68
2024-01-24T02:52:03.172Z,20.61
2024-01-24T02:53:03.204Z,20.72
2024-01-24T02:54:03.356Z,20.79
2024-01-24T02:55:03.427Z,20.81
2024-01-24T02:56:02.514Z,20.79
2024-01-24T02:57:02.541Z,20.78
2024-01-24T02:58:02.460Z,20.81
2024-01-24T02:59:03.393Z,20.85
2024-01-24T03:00:04.241Z,20.88
2024-01-24T03:01:03.090Z,20.95
2024-01-24T03:02:03.353Z,20.99
2024-01-24T03:03:02.629Z,20.97
2024-01-24T03:04:02.962Z,21.04
2024-01-24T03:05:03.288Z,21.10
2024-01-24T03:06:03.002Z,21.04
2024-01-24T03:07:02.966Z,21.05
2024-01-24T03:08:02.694Z,21.00
2024-01-24T03:09:02.579Z,21.05
2024-01-24T03:10:02.632Z,21.12
2024-01-24T03:11:02.479Z,21.06
2024-01-24T03:12:02.587Z,21.09
2024-01-24T03:13:02.411Z,21.13
2024-01-24T03:14:03.430Z,21.15
2024-01-24T03:15:03.595Z,21.10
2024-01-24T03:16:02.733Z,21.13
2024-01-24T03:17:02.703Z,21.18
2024-01-24T03:18:02.860Z,21.21
2024-01-24T03:19:02.607Z,21.18
2024-01-24T03:20:02.574Z,21.07
2024-01-24T03:21:02.677Z,21.10
2024-01-24T03:22:02.652Z,21.18
2024-01-24T03:23:04.774Z,21.17
2024-01-24T03:24:03.005Z,21.19
2024-01-24T03:25:03.411Z,21.15
2024-01-24T03:26:03.415Z,21.15
2024-01-24T03:27:03.336Z,21.17
2024-01-24T03:28:03.222Z,21.25
2024-01-24T03:29:03.170Z,21.17
2024-01-24T03:30:03.546Z,21.27
2024-01-24T03:31:02.955Z,21.19
2024-01-24T03:32:02.976Z,21.17
2024-01-24T03:33:02.737Z,21.14
2024-01-24T03:34:02.725Z,21.21
2024-01-24T03:35:02.956Z,21.17
2024-01-24T03:36:02.628Z,21.15
2024-01-24T03:37:02.600Z,21.20
2024-01-24T03:38:02.462Z,21.19
2024-01-24T03:39:03.407Z,21.11
2024-01-24T03:40:03.372Z,21.17
2024-01-24T03:41:03.313Z,21.20
2024-01-24T03:42:03.172Z,21.20
2024-01-24T03:43:03.061Z,21.23
2024-01-24T03:44:02.924Z,21.22
2024-01-24T03:45:02.978Z,21.23
2024-01-24T03:46:03.495Z,21.21
2024-01-24T03:47:03.437Z,21.14
2024-01-24T03:48:02.525Z,21.10
2024-01-24T03:49:03.408Z,21.12
2024-01-24T03:50:03.617Z,21.12
2024-01-24T03:51:02.438Z,21.14
2024-01-24T03:52:02.543Z,21.11
2024-01-24T03:53:02.422Z,21.01
2024-01-24T03:54:03.398Z,20.97
2024-01-24T03:55:02.549Z,21.04
2024-01-24T03:56:02.426Z,21.03
2024-01-24T03:57:03.422Z,21.03
2024-01-24T03:58:02.619Z,21
2024-01-24T03:59:02.707Z,20.98
2024-01-24T04:00:03.687Z,21.06
2024-01-24T04:01:03.194Z,21.01
2024-01-24T04:02:03.052Z,21.09
2024-01-24T04:03:02.954Z,21.14
2024-01-24T04:04:03.018Z,21.11
2024-01-24T04:05:02.847Z,21.10
2024-01-24T04:06:02.904Z,21.06
2024-01-24T04:07:02.809Z,21.05
2024-01-24T04:08:02.561Z,21.04
2024-01-24T04:09:02.550Z,21.06
2024-01-24T04:10:02.638Z,21.10
2024-01-24T04:11:02.540Z,21.09
2024-01-24T04:12:02.490Z,21.07
2024-01-24T04:13:03.411Z,21.15
2024-01-24T04:14:03.452Z,21.12
2024-01-24T04:15:03.843Z,21.11
2024-01-24T04:16:03.532Z,21.07
2024-01-24T04:17:02.837Z,21.04
2024-01-24T04:18:03.171Z,21.02
2024-01-24T04:19:03.324Z,20.98
2024-01-24T04:20:03.446Z,21.03
2024-01-24T04:21:02.437Z,21.05
2024-01-24T04:22:03.545Z,21.13
2024-01-24T04:23:02.445Z,21.11
2024-01-24T04:24:03.356Z,21.10
2024-01-24T04:25:03.631Z,21.09
2024-01-24T04:26:02.874Z,21.11
2024-01-24T04:27:02.793Z,21.06
2024-01-24T04:28:02.741Z,21.06
2024-01-24T04:29:02.440Z,21.11
2024-01-24T04:30:03.875Z,20.95
2024-01-24T04:31:02.883Z,20.94
2024-01-24T04:32:02.904Z,20.89
2024-01-24T04:33:03.094Z,20.95
2024-01-24T04:34:02.836Z,21.09
2024-01-24T04:35:03.243Z,21.08
2024-01-24T04:36:03.281Z,20.96
2024-01-24T04:37:03.193Z,20.92
2024-01-24T04:38:03.000Z,21.04
2024-01-24T04:39:03.106Z,21.15
2024-01-24T04:40:03.351Z,21.13
2024-01-24T04:41:03.256Z,21.19
2024-01-24T04:42:11.660Z,21.16
2024-01-24T04:43:02.982Z,20.96
2024-01-24T04:44:02.811Z,21.05
2024-01-24T04:45:03.119Z,21.11
2024-01-24T04:46:02.761Z,21.09
2024-01-24T04:47:03.048Z,21.04
2024-01-24T04:48:03.408Z,20.94
2024-01-24T04:49:02.862Z,21
2024-01-24T04:50:03.116Z,21.01
2024-01-24T04:51:03.170Z,21.06
2024-01-24T04:52:03.306Z,21.06
2024-01-24T04:53:03.130Z,21.13
2024-01-24T04:54:03.049Z,21.23
2024-01-24T04:55:03.019Z,21.23
2024-01-24T04:56:03.072Z,21.22
2024-01-24T04:57:02.862Z,21.19
2024-01-24T04:58:02.846Z,21.20
2024-01-24T04:59:02.748Z,21.19
2024-01-24T05:00:03.845Z,21.13
2024-01-24T05:01:03.392Z,21.06
2024-01-24T05:02:03.368Z,21.14
2024-01-24T05:03:03.012Z,21.12
2024-01-24T05:04:02.908Z,21.13
2024-01-24T05:05:03.028Z,21.08
2024-01-24T05:06:07.721Z,20.97
2024-01-24T05:07:02.669Z,20.97
2024-01-24T05:08:02.783Z,20.91
2024-01-24T05:09:02.872Z,20.86
2024-01-24T05:10:03.221Z,20.93
2024-01-24T05:11:03.223Z,21
2024-01-24T05:12:03.396Z,20.84
2024-01-24T05:13:02.572Z,20.75
2024-01-24T05:14:02.402Z,20.85
2024-01-24T05:15:03.667Z,20.81
2024-01-24T05:16:02.836Z,20.79
2024-01-24T05:17:03.097Z,20.77
2024-01-24T05:18:03.341Z,20.89
2024-01-24T05:19:03.163Z,20.91
2024-01-24T05:20:03.070Z,20.95
2024-01-24T05:21:02.983Z,21.01
2024-01-24T05:22:02.792Z,21.10
2024-01-24T05:23:02.807Z,21.17
2024-01-24T05:24:02.662Z,21.22
2024-01-24T05:25:02.795Z,21.21
2024-01-24T05:26:02.794Z,21.07
2024-01-24T05:27:02.653Z,21.01
2024-01-24T05:28:02.492Z,20.99
2024-01-24T05:29:02.352Z,21.08
2024-01-24T05:30:12.387Z,21.11
2024-01-24T05:31:03.191Z,21.23
2024-01-24T05:32:03.381Z,21.25
2024-01-24T05:33:03.106Z,21.25
2024-01-24T05:34:03.050Z,21.28
2024-01-24T05:35:03.324Z,21.30
2024-01-24T05:36:03.336Z,21.26
2024-01-24T05:37:03.387Z,21.32
2024-01-24T05:38:03.252Z,21.34
2024-01-24T05:39:03.428Z,21.35
2024-01-24T05:40:03.462Z,21.36
2024-01-24T05:41:03.474Z,21.36
2024-01-24T05:42:03.430Z,21.36
2024-01-24T05:43:03.408Z,21.31
2024-01-24T05:44:03.470Z,21.18
2024-01-24T05:45:03.584Z,21.10
2024-01-24T05:46:02.789Z,20.99
2024-01-24T05:47:02.894Z,20.96
2024-01-24T05:48:03.114Z,20.84
2024-01-24T05:49:03.184Z,20.79
2024-01-24T05:50:03.112Z,20.74
2024-01-24T05:51:03.344Z,20.69
2024-01-24T05:52:02.610Z,20.73
2024-01-24T05:53:03.405Z,20.70
2024-01-24T05:54:03.425Z,20.62
2024-01-24T05:55:02.776Z,20.37
2024-01-24T05:56:02.677Z,20.27
2024-01-24T05:57:02.828Z,20.34
2024-01-24T05:58:02.873Z,20.25
2024-01-24T05:59:03.130Z,20.18
2024-01-24T06:00:04.410Z,20.28
2024-01-24T06:01:02.915Z,20.16
2024-01-24T06:02:02.924Z,20.20
2024-01-24T06:03:03.494Z,20.22
2024-01-24T06:04:02.726Z,20.31
2024-01-24T06:05:03.135Z,20.34
2024-01-24T06:06:03.330Z,20.30
2024-01-24T06:07:02.445Z,20.12
2024-01-24T06:08:03.270Z,20.20
2024-01-24T06:09:03.208Z,20.26
2024-01-24T06:10:03.337Z,20.32
2024-01-24T06:11:02.744Z,20.38
2024-01-24T06:12:02.753Z,20.38
2024-01-24T06:13:02.606Z,20.29
2024-01-24T06:14:02.677Z,20.20
2024-01-24T06:15:03.213Z,20.09
2024-01-24T06:16:02.882Z,20.03
2024-01-24T06:17:03.101Z,19.93
2024-01-24T06:18:02.811Z,19.98
2024-01-24T06:19:02.708Z,19.99
2024-01-24T06:20:02.732Z,20.00
2024-01-24T06:21:02.835Z,19.93
2024-01-24T06:22:02.984Z,19.97
2024-01-24T06:23:02.933Z,20.01
2024-01-24T06:24:03.022Z,19.90
2024-01-24T06:25:03.126Z,19.74
2024-01-24T06:26:02.893Z,19.76
2024-01-24T06:27:02.815Z,19.72
2024-01-24T06:28:02.701Z,19.65
2024-01-24T06:29:02.895Z,19.60
2024-01-24T06:30:18.337Z,19.60
2024-01-24T06:31:03.125Z,19.46
2024-01-24T06:32:03.307Z,19.51
2024-01-24T06:33:02.586Z,19.53
2024-01-24T06:34:02.833Z,19.46
2024-01-24T06:35:03.037Z,19.53
2024-01-24T06:36:02.899Z,19.50
2024-01-24T06:37:02.790Z,19.40
2024-01-24T06:38:02.716Z,19.45
2024-01-24T06:39:02.560Z,19.39
2024-01-24T06:40:02.751Z,19.37
2024-01-24T06:41:02.919Z,19.37
2024-01-24T06:42:02.809Z,19.44
2024-01-24T06:43:02.880Z,19.31
2024-01-24T06:44:02.800Z,19.31
2024-01-24T06:45:03.249Z,19.21
2024-01-24T06:46:02.639Z,19.09
2024-01-24T06:47:02.580Z,19.05
2024-01-24T06:48:03.497Z,19.16
2024-01-24T06:49:02.600Z,19.15
2024-01-24T06:50:02.604Z,19.21
2024-01-24T06:51:02.537Z,19.22
2024-01-24T06:52:02.336Z,19.19
2024-01-24T06:53:03.410Z,19.26
2024-01-24T06:54:03.455Z,19.25
2024-01-24T06:55:02.802Z,19.07
2024-01-24T06:56:02.947Z,19.07
2024-01-24T06:57:03.053Z,19.05
2024-01-24T06:58:04.988Z,19.05
2024-01-24T06:59:02.924Z,18.93
2024-01-24T07:00:04.532Z,18.99
2024-01-24T07:01:03.467Z,19.12
2024-01-24T07:02:03.583Z,19.23
2024-01-24T07:03:02.783Z,19.14
2024-01-24T07:04:03.075Z,18.97
2024-01-24T07:05:03.554Z,19.01
2024-01-24T07:06:02.595Z,19.13
2024-01-24T07:07:02.790Z,19.09
2024-01-24T07:08:03.028Z,19.03
2024-01-24T07:09:03.043Z,19.09
2024-01-24T07:10:03.378Z,19.13
2024-01-24T07:11:03.037Z,19.13
2024-01-24T07:12:02.943Z,19.16
2024-01-24T07:13:02.964Z,19.11
2024-01-24T07:14:02.932Z,18.96
2024-01-24T07:15:03.388Z,19.05
2024-01-24T07:16:03.604Z,19.04
2024-01-24T07:17:02.804Z,19.04
2024-01-24T07:18:02.835Z,19.17
2024-01-24T07:19:03.053Z,19.09
2024-01-24T07:20:03.124Z,19.10
2024-01-24T07:21:02.556Z,19.19
2024-01-24T07:22:04.871Z,19.17
2024-01-24T07:23:02.672Z,19.04
2024-01-24T07:24:02.727Z,18.95
2024-01-24T07:25:02.834Z,18.95
2024-01-24T07:26:03.032Z,18.80
2024-01-24T07:27:03.120Z,18.92
2024-01-24T07:28:03.376Z,18.94
2024-01-24T07:29:02.733Z,18.82
2024-01-24T07:30:03.049Z,18.77
2024-01-24T07:31:03.424Z,18.71
2024-01-24T07:32:02.862Z,18.72
2024-01-24T07:33:03.359Z,18.83
2024-01-24T07:34:03.211Z,18.87
2024-01-24T07:35:03.802Z,18.91
2024-01-24T07:36:03.031Z,18.92
2024-01-24T07:37:02.929Z,18.95
2024-01-24T07:38:02.781Z,18.93
2024-01-24T07:39:02.845Z,18.94
2024-01-24T07:40:03.212Z,18.90
2024-01-24T07:41:02.915Z,18.95
2024-01-24T07:42:02.885Z,18.93
2024-01-24T07:43:02.929Z,18.90
2024-01-24T07:44:02.882Z,18.97
2024-01-24T07:45:03.445Z,18.97
2024-01-24T07:46:03.209Z,19.00
2024-01-24T07:47:03.376Z,18.98
2024-01-24T07:48:02.773Z,18.97
2024-01-24T07:49:02.962Z,19.06
2024-01-24T07:50:03.433Z,19.19
2024-01-24T07:51:02.532Z,19.20
2024-01-24T07:52:02.779Z,19.21
2024-01-24T07:53:02.806Z,19.22
2024-01-24T07:54:02.811Z,19.25
2024-01-24T07:55:02.787Z,19.18
2024-01-24T07:56:11.086Z,19.08
2024-01-24T07:57:02.465Z,19.07
2024-01-24T07:58:03.835Z,19.13
2024-01-24T07:59:02.494Z,19.07
2024-01-24T08:00:03.636Z,18.94
2024-01-24T08:01:03.315Z,18.97
2024-01-24T08:02:03.757Z,19.04
2024-01-24T08:03:03.193Z,19.03
2024-01-24T08:04:03.250Z,18.94
2024-01-24T08:05:03.388Z,18.96
2024-01-24T08:06:03.054Z,19.00
2024-01-24T08:07:03.034Z,19.07
2024-01-24T08:08:02.870Z,19.18
2024-01-24T08:09:03.016Z,19.19
2024-01-24T08:10:03.382Z,19.04
2024-01-24T08:11:02.943Z,19.07
2024-01-24T08:12:03.106Z,19.02
2024-01-24T08:13:02.926Z,18.95
2024-01-24T08:14:02.875Z,19.04
2024-01-24T08:15:03.346Z,19.10
2024-01-24T08:16:02.674Z,19.13
2024-01-24T08:17:02.693Z,19.13
2024-01-24T08:18:03.643Z,19.19
2024-01-24T08:19:02.949Z,19.09
2024-01-24T08:20:03.049Z,18.93
2024-01-24T08:21:05.661Z,18.92
2024-01-24T08:22:02.801Z,19.03
2024-01-24T08:23:02.930Z,18.91
2024-01-24T08:24:03.029Z,18.71
2024-01-24T08:25:03.073Z,18.64
2024-01-24T08:26:03.023Z,18.65
2024-01-24T08:27:03.238Z,18.71
2024-01-24T08:28:03.197Z,18.71
2024-01-24T08:29:02.905Z,18.74
2024-01-24T08:30:03.489Z,18.75
2024-01-24T08:31:02.882Z,18.76
2024-01-24T08:32:03.263Z,18.88
2024-01-24T08:33:03.075Z,18.94
2024-01-24T08:34:03.462Z,19.04
2024-01-24T08:35:03.527Z,18.94
2024-01-24T08:36:03.194Z,18.88
2024-01-24T08:37:03.683Z,18.86
2024-01-24T08:38:02.965Z,18.92
2024-01-24T08:39:02.877Z,18.89
2024-01-24T08:40:03.161Z,18.89
2024-01-24T08:41:02.607Z,18.81
2024-01-24T08:42:02.576Z,18.74
2024-01-24T08:43:02.559Z,18.75
2024-01-24T08:44:03.327Z,18.67
2024-01-24T08:45:03.666Z,18.85
2024-01-24T08:46:02.732Z,18.91
2024-01-24T08:47:02.847Z,18.92
2024-01-24T08:48:03.048Z,18.97
2024-01-24T08:49:03.011Z,18.99
2024-01-24T08:50:03.149Z,18.96
2024-01-24T08:51:02.970Z,18.89
2024-01-24T08:52:03.085Z,18.93
2024-01-24T08:53:02.907Z,18.99
2024-01-24T08:54:02.962Z,19.06
2024-01-24T08:55:03.221Z,19.18
2024-01-24T08:56:03.155Z,19.17
2024-01-24T08:57:03.107Z,19.19
2024-01-24T08:58:03.237Z,19.27
2024-01-24T08:59:03.169Z,19.26
2024-01-24T09:00:04.461Z,19.22
2024-01-24T09:01:02.786Z,19.24
2024-01-24T09:02:03.070Z,19.23
2024-01-24T09:03:02.814Z,19.20
2024-01-24T09:04:03.232Z,19.20
2024-01-24T09:05:03.318Z,19.03
2024-01-24T09:06:03.413Z,18.98
2024-01-24T09:07:03.507Z,19
2024-01-24T09:08:02.682Z,19.05
2024-01-24T09:09:03.108Z,19.16
2024-01-24T09:10:03.145Z,19.23
2024-01-24T09:11:02.994Z,19.32
2024-01-24T09:12:02.884Z,19.33
2024-01-24T09:13:03.165Z,19.33
2024-01-24T09:14:03.139Z,19.37
2024-01-24T09:15:03.570Z,19.44
2024-01-24T09:16:02.709Z,19.47
2024-01-24T09:17:02.761Z,19.48
2024-01-24T09:18:02.852Z,19.50
2024-01-24T09:19:02.967Z,19.52
2024-01-24T09:20:03.039Z,19.53
2024-01-24T09:21:02.787Z,19.52
2024-01-24T09:22:03.145Z,19.58
2024-01-24T09:23:02.727Z,19.59
2024-01-24T09:24:02.684Z,19.62
2024-01-24T09:25:06.427Z,19.64
2024-01-24T09:26:03.029Z,19.54
2024-01-24T09:27:03.322Z,19.53
2024-01-24T09:28:02.800Z,19.54
2024-01-24T09:29:03.250Z,19.54
2024-01-24T09:30:03.661Z,19.49
2024-01-24T09:31:03.086Z,19.50
2024-01-24T09:32:03.364Z,19.50
2024-01-24T09:33:02.901Z,19.47
2024-01-24T09:34:03.453Z,19.51
2024-01-24T09:35:03.676Z,19.46
2024-01-24T09:36:03.412Z,19.44
2024-01-24T09:37:03.213Z,19.33
2024-01-24T09:38:03.259Z,19.41
2024-01-24T09:39:03.137Z,19.47
2024-01-24T09:40:03.354Z,19.42
2024-01-24T09:41:03.157Z,19.40
2024-01-24T09:42:03.050Z,19.45
2024-01-24T09:43:03.225Z,19.56
2024-01-24T09:44:03.444Z,19.59
2024-01-24T09:45:04.563Z,19.54
2024-01-24T09:46:02.879Z,19.59
2024-01-24T09:47:03.090Z,19.58
2024-01-24T09:48:03.268Z,19.48
2024-01-24T09:49:03.321Z,19.44
2024-01-24T09:50:03.323Z,19.40
2024-01-24T09:51:03.515Z,19.44
2024-01-24T09:52:02.909Z,19.51
2024-01-24T09:53:02.857Z,19.58
2024-01-24T09:54:02.967Z,19.50
2024-01-24T09:55:03.452Z,19.46
2024-01-24T09:56:02.569Z,19.38
2024-01-24T09:57:02.886Z,19.48
2024-01-24T09:58:03.100Z,19.5
2024-01-24T09:59:03.098Z,19.52
2024-01-24T10:00:04.321Z,19.53
2024-01-24T10:01:02.754Z,19.54
2024-01-24T10:02:02.666Z,19.57
2024-01-24T10:03:02.701Z,19.61
2024-01-24T10:04:02.763Z,19.67
2024-01-24T10:05:02.761Z,19.67
2024-01-24T10:06:02.934Z,19.72
2024-01-24T10:07:03.037Z,19.73
2024-01-24T10:08:02.863Z,19.73
2024-01-24T10:09:05.447Z,19.83
2024-01-24T10:10:02.973Z,19.84
2024-01-24T10:11:02.811Z,19.86
2024-01-24T10:12:02.860Z,19.90
2024-01-24T10:13:03.184Z,19.88
2024-01-24T10:14:02.983Z,19.86
2024-01-24T10:15:03.457Z,19.95
2024-01-24T10:16:04.889Z,19.95
2024-01-24T10:17:02.920Z,19.96
2024-01-24T10:18:03.432Z,19.97
2024-01-24T10:19:02.854Z,20.04
2024-01-24T10:20:03.065Z,19.99
2024-01-24T10:21:02.996Z,19.97
2024-01-24T10:22:04.197Z,19.98
2024-01-24T10:23:03.084Z,19.97
2024-01-24T10:24:03.103Z,19.93
2024-01-24T10:25:03.558Z,19.98
2024-01-24T10:26:02.861Z,19.95
2024-01-24T10:27:02.893Z,19.93
2024-01-24T10:28:02.855Z,19.89
2024-01-24T10:29:02.733Z,19.86
2024-01-24T10:30:03.093Z,19.82
2024-01-24T10:31:03.411Z,19.80
2024-01-24T10:32:02.750Z,19.79
2024-01-24T10:33:03.312Z,19.77
2024-01-24T10:34:03.536Z,19.74
2024-01-24T10:35:02.940Z,19.63
2024-01-24T10:36:07.597Z,19.60
2024-01-24T10:37:02.798Z,19.62
2024-01-24T10:38:02.961Z,19.68
2024-01-24T10:39:03.079Z,19.76
2024-01-24T10:40:03.430Z,19.88
2024-01-24T10:41:03.583Z,19.90
2024-01-24T10:42:03.313Z,19.93
2024-01-24T10:43:03.204Z,19.94
2024-01-24T10:44:03.060Z,19.88
2024-01-24T10:45:02.874Z,19.87
2024-01-24T10:46:02.975Z,19.74
2024-01-24T10:47:03.189Z,19.76
2024-01-24T10:48:02.525Z,19.76
2024-01-24T10:49:03.630Z,19.68
2024-01-24T10:50:03.497Z,19.63
2024-01-24T10:51:03.628Z,19.62
2024-01-24T10:52:03.557Z,19.62
2024-01-24T10:53:02.383Z,19.64
2024-01-24T10:54:03.565Z,19.63
2024-01-24T10:55:02.797Z,19.5
2024-01-24T10:56:02.882Z,19.53
2024-01-24T10:57:03.272Z,19.52
2024-01-24T10:58:04.763Z,19.54
2024-01-24T10:59:02.772Z,19.62
2024-01-24T11:00:04.586Z,19.72
2024-01-24T11:01:02.913Z,19.66
2024-01-24T11:02:03.243Z,19.55
2024-01-24T11:03:02.589Z,19.57
2024-01-24T11:04:03.279Z,19.61
2024-01-24T11:05:03.653Z,19.67
2024-01-24T11:06:02.938Z,19.64
2024-01-24T11:07:03.103Z,19.56
2024-01-24T11:08:02.967Z,19.47
2024-01-24T11:09:03.062Z,19.44
2024-01-24T11:10:04.550Z,19.5
2024-01-24T11:11:02.687Z,19.51
2024-01-24T11:12:02.644Z,19.53
2024-01-24T11:13:02.719Z,19.42
2024-01-24T11:14:02.867Z,19.38
2024-01-24T11:15:03.141Z,19.30
2024-01-24T11:16:04.810Z,19.15
2024-01-24T11:17:03.295Z,19.10
2024-01-24T11:18:02.933Z,19.18
2024-01-24T11:19:02.887Z,19.28
2024-01-24T11:20:02.816Z,19.28
2024-01-24T11:21:02.949Z,19.21
2024-01-24T11:22:07.518Z,19.26
2024-01-24T11:23:03.384Z,19.26
2024-01-24T11:24:02.532Z,19.34
2024-01-24T11:25:03.104Z,19.41
2024-01-24T11:26:03.308Z,19.45
2024-01-24T11:27:03.534Z,19.37
2024-01-24T11:28:03.277Z,19.37
2024-01-24T11:29:02.552Z,19.35
2024-01-24T11:30:03.357Z,19.38
2024-01-24T11:31:03.301Z,19.41
2024-01-24T11:32:05.342Z,19.40
2024-01-24T11:33:03.283Z,19.43
2024-01-24T11:34:02.958Z,19.50
2024-01-24T11:35:03.269Z,19.55
2024-01-24T11:36:03.507Z,19.54
2024-01-24T11:37:02.494Z,19.5
2024-01-24T11:39:03.262Z,19.54
2024-01-24T11:40:03.572Z,19.62
2024-01-24T11:41:02.630Z,19.59
2024-01-24T11:42:02.772Z,19.64
2024-01-24T11:43:02.873Z,19.77
2024-01-24T11:44:02.604Z,19.86
2024-01-24T11:45:03.229Z,19.95
2024-01-24T11:46:03.797Z,19.99
2024-01-24T11:47:02.805Z,20.05
2024-01-24T11:48:02.618Z,20.17
2024-01-24T11:49:02.602Z,20.17
2024-01-24T11:50:02.769Z,20.14
2024-01-24T11:51:02.539Z,20.00
2024-01-24T11:52:02.444Z,19.97
2024-01-24T11:53:03.415Z,19.94
2024-01-24T11:54:03.301Z,19.98
2024-01-24T11:55:03.432Z,20.03
2024-01-24T11:56:03.569Z,20.03
2024-01-24T11:57:02.890Z,20.07
2024-01-24T11:58:03.032Z,20.15
2024-01-24T11:59:02.853Z,20.17
2024-01-24T12:00:04.203Z,20.18
2024-01-24T12:01:02.610Z,20.10
2024-01-24T12:02:02.775Z,20.11
2024-01-24T12:03:02.664Z,20.09
2024-01-24T12:04:02.887Z,20.02
2024-01-24T12:05:02.846Z,19.93
2024-01-24T12:06:02.917Z,19.98
2024-01-24T12:07:02.946Z,20.02
2024-01-24T12:08:02.634Z,19.93
2024-01-24T12:09:02.555Z,19.93
2024-01-24T12:10:02.993Z,19.80
2024-01-24T12:11:02.993Z,19.65
2024-01-24T12:12:03.082Z,19.67
2024-01-24T12:13:03.161Z,19.72
2024-01-24T12:14:03.347Z,19.74
2024-01-24T12:15:02.988Z,19.69
2024-01-24T12:16:03.422Z,19.63
2024-01-24T12:17:02.680Z,19.62
2024-01-24T12:18:02.934Z,19.60
2024-01-24T12:19:02.767Z,19.68
2024-01-24T12:20:03.502Z,19.64
2024-01-24T12:21:03.619Z,19.68
2024-01-24T12:22:02.581Z,19.71
2024-01-24T12:23:02.580Z,19.74
2024-01-24T12:24:02.552Z,19.76
2024-01-24T12:25:02.673Z,19.70
2024-01-24T12:26:02.943Z,19.61
2024-01-24T12:27:03.052Z,19.63
2024-01-24T12:28:03.577Z,19.64
2024-01-24T12:29:02.824Z,19.71
2024-01-24T12:30:03.373Z,19.79
2024-01-24T12:31:03.166Z,19.70
2024-01-24T12:32:03.141Z,19.66
2024-01-24T12:33:03.192Z,19.64
2024-01-24T12:34:02.981Z,19.75
2024-01-24T12:35:03.235Z,19.81
2024-01-24T12:36:02.842Z,19.87
2024-01-24T12:37:02.938Z,19.85
2024-01-24T12:38:02.742Z,19.76
2024-01-24T12:39:02.742Z,19.80
2024-01-24T12:40:03.756Z,19.82
2024-01-24T12:41:02.672Z,19.77
2024-01-24T12:42:02.408Z,19.76
2024-01-24T12:43:03.680Z,19.75
2024-01-24T12:44:02.561Z,19.77
2024-01-24T12:45:02.980Z,19.72
2024-01-24T12:46:02.496Z,19.65
2024-01-24T12:47:03.778Z,19.64
2024-01-24T12:48:03.222Z,19.65
2024-01-24T12:49:03.134Z,19.65
2024-01-24T12:50:03.366Z,19.60
2024-01-24T12:51:02.454Z,19.60
2024-01-24T12:52:03.674Z,19.64
2024-01-24T12:53:03.509Z,19.66
2024-01-24T12:54:03.013Z,19.61
2024-01-24T12:55:03.456Z,19.71